sensor_id;sensor_type;location;lat;lon;timestamp;P1;durP1;ratioP1;P2;durP2;ratioP2
5684;SDS011;2865;53.114;9.130;2022-08-19T00:01:44;7.00;;;4.43;;
5684;SDS011;2865;53.114;9.130;2022-08-19T00:04:11;5.57;;;5.07;;
5684;SDS011;2865;53.114;9.130;2022-08-19T00:06:35;5.30;;;4.80;;
5684;SDS011;2865;53.114;9.130;2022-08-19T00:09:00;7.10;;;4.90;;
5684;SDS011;2865;53.114;9.130;2022-08-19T00:11:25;8.27;;;5.50;;
5684;SDS011;2865;53.114;9.130;2022-08-19T00:13:50;8.33;;;5.23;;
5684;SDS011;2865;53.114;9.130;2022-08-19T00:16:16;5.57;;;5.00;;
5684;SDS011;2865;53.114;9.130;2022-08-19T00:18:41;5.80;;;5.13;;
5684;SDS011;2865;53.114;9.130;2022-08-19T00:21:06;7.37;;;5.83;;
5684;SDS011;2865;53.114;9.130;2022-08-19T00:23:31;6.67;;;5.30;;
5684;SDS011;2865;53.114;9.130;2022-08-19T00:25:57;7.27;;;5.30;;
5684;SDS011;2865;53.114;9.130;2022-08-19T00:28:22;7.23;;;5.20;;
5684;SDS011;2865;53.114;9.130;2022-08-19T00:30:47;6.33;;;4.97;;
5684;SDS011;2865;53.114;9.130;2022-08-19T00:33:13;7.10;;;6.40;;
5684;SDS011;2865;53.114;9.130;2022-08-19T00:35:38;6.50;;;5.33;;
5684;SDS011;2865;53.114;9.130;2022-08-19T00:38:03;5.10;;;4.60;;
5684;SDS011;2865;53.114;9.130;2022-08-19T00:40:28;5.23;;;4.70;;
5684;SDS011;2865;53.114;9.130;2022-08-19T00:42:54;5.00;;;4.50;;
5684;SDS011;2865;53.114;9.130;2022-08-19T00:45:20;5.03;;;4.53;;
5684;SDS011;2865;53.114;9.130;2022-08-19T00:47:45;7.33;;;6.00;;
5684;SDS011;2865;53.114;9.130;2022-08-19T00:50:10;5.63;;;4.53;;
5684;SDS011;2865;53.114;9.130;2022-08-19T00:52:36;5.60;;;4.83;;
5684;SDS011;2865;53.114;9.130;2022-08-19T00:55:01;7.50;;;6.10;;
5684;SDS011;2865;53.114;9.130;2022-08-19T00:57:27;5.10;;;4.70;;
5684;SDS011;2865;53.114;9.130;2022-08-19T00:59:55;6.37;;;5.03;;
5684;SDS011;2865;53.114;9.130;2022-08-19T01:02:20;5.93;;;5.23;;
5684;SDS011;2865;53.114;9.130;2022-08-19T01:04:45;5.90;;;4.57;;
5684;SDS011;2865;53.114;9.130;2022-08-19T01:07:11;7.07;;;5.57;;
5684;SDS011;2865;53.114;9.130;2022-08-19T01:09:36;7.70;;;6.50;;
5684;SDS011;2865;53.114;9.130;2022-08-19T01:12:02;5.60;;;5.00;;
5684;SDS011;2865;53.114;9.130;2022-08-19T01:14:27;5.73;;;4.77;;
5684;SDS011;2865;53.114;9.130;2022-08-19T01:16:53;6.13;;;5.27;;
5684;SDS011;2865;53.114;9.130;2022-08-19T01:19:22;6.57;;;5.37;;
5684;SDS011;2865;53.114;9.130;2022-08-19T01:21:45;15.83;;;6.07;;
5684;SDS011;2865;53.114;9.130;2022-08-19T01:24:08;6.60;;;5.63;;
5684;SDS011;2865;53.114;9.130;2022-08-19T01:26:38;7.63;;;5.60;;
5684;SDS011;2865;53.114;9.130;2022-08-19T01:28:59;5.87;;;5.27;;
5684;SDS011;2865;53.114;9.130;2022-08-19T01:31:25;7.80;;;6.13;;
5684;SDS011;2865;53.114;9.130;2022-08-19T01:33:51;8.23;;;5.50;;
5684;SDS011;2865;53.114;9.130;2022-08-19T01:36:21;5.93;;;5.43;;
5684;SDS011;2865;53.114;9.130;2022-08-19T01:38:41;5.73;;;5.23;;
5684;SDS011;2865;53.114;9.130;2022-08-19T01:41:06;7.57;;;5.80;;
5684;SDS011;2865;53.114;9.130;2022-08-19T01:43:32;6.70;;;5.80;;
5684;SDS011;2865;53.114;9.130;2022-08-19T01:45:56;6.20;;;5.60;;
5684;SDS011;2865;53.114;9.130;2022-08-19T01:48:22;6.27;;;5.23;;
5684;SDS011;2865;53.114;9.130;2022-08-19T01:50:47;5.90;;;5.40;;
5684;SDS011;2865;53.114;9.130;2022-08-19T01:53:12;7.43;;;6.37;;
5684;SDS011;2865;53.114;9.130;2022-08-19T01:55:39;7.63;;;5.93;;
5684;SDS011;2865;53.114;9.130;2022-08-19T01:58:03;6.97;;;6.07;;
5684;SDS011;2865;53.114;9.130;2022-08-19T02:00:30;6.60;;;5.20;;
5684;SDS011;2865;53.114;9.130;2022-08-19T02:02:54;8.23;;;5.93;;
5684;SDS011;2865;53.114;9.130;2022-08-19T02:05:19;8.90;;;4.80;;
5684;SDS011;2865;53.114;9.130;2022-08-19T02:07:44;8.30;;;5.23;;
5684;SDS011;2865;53.114;9.130;2022-08-19T02:10:11;5.23;;;4.67;;
5684;SDS011;2865;53.114;9.130;2022-08-19T02:12:35;7.03;;;4.60;;
5684;SDS011;2865;53.114;9.130;2022-08-19T02:15:00;6.20;;;5.50;;
5684;SDS011;2865;53.114;9.130;2022-08-19T02:17:26;5.80;;;5.33;;
5684;SDS011;2865;53.114;9.130;2022-08-19T02:19:51;5.80;;;5.30;;
5684;SDS011;2865;53.114;9.130;2022-08-19T02:22:16;6.20;;;5.13;;
5684;SDS011;2865;53.114;9.130;2022-08-19T02:24:42;7.53;;;5.50;;
5684;SDS011;2865;53.114;9.130;2022-08-19T02:27:07;7.40;;;5.57;;
5684;SDS011;2865;53.114;9.130;2022-08-19T02:29:32;5.90;;;4.80;;
5684;SDS011;2865;53.114;9.130;2022-08-19T02:31:57;6.40;;;5.80;;
5684;SDS011;2865;53.114;9.130;2022-08-19T02:34:23;6.00;;;5.20;;
5684;SDS011;2865;53.114;9.130;2022-08-19T02:36:48;8.00;;;5.60;;
5684;SDS011;2865;53.114;9.130;2022-08-19T02:39:13;5.00;;;4.50;;
5684;SDS011;2865;53.114;9.130;2022-08-19T02:41:39;9.10;;;6.40;;
5684;SDS011;2865;53.114;9.130;2022-08-19T02:44:04;7.60;;;6.20;;
5684;SDS011;2865;53.114;9.130;2022-08-19T02:46:30;6.40;;;5.80;;
5684;SDS011;2865;53.114;9.130;2022-08-19T02:48:56;9.00;;;6.00;;
5684;SDS011;2865;53.114;9.130;2022-08-19T02:51:22;6.43;;;5.83;;
5684;SDS011;2865;53.114;9.130;2022-08-19T02:53:45;7.67;;;6.33;;
5684;SDS011;2865;53.114;9.130;2022-08-19T02:56:10;6.30;;;5.60;;
5684;SDS011;2865;53.114;9.130;2022-08-19T02:58:36;10.13;;;5.20;;
5684;SDS011;2865;53.114;9.130;2022-08-19T03:01:01;6.50;;;5.90;;
5684;SDS011;2865;53.114;9.130;2022-08-19T03:03:26;6.03;;;5.43;;
5684;SDS011;2865;53.114;9.130;2022-08-19T03:06:01;9.53;;;6.00;;
5684;SDS011;2865;53.114;9.130;2022-08-19T03:08:17;9.17;;;6.37;;
5684;SDS011;2865;53.114;9.130;2022-08-19T03:10:43;6.43;;;5.63;;
5684;SDS011;2865;53.114;9.130;2022-08-19T03:13:08;7.07;;;5.40;;
5684;SDS011;2865;53.114;9.130;2022-08-19T03:15:33;9.70;;;6.43;;
5684;SDS011;2865;53.114;9.130;2022-08-19T03:17:58;10.00;;;6.20;;
5684;SDS011;2865;53.114;9.130;2022-08-19T03:20:24;7.33;;;5.73;;
5684;SDS011;2865;53.114;9.130;2022-08-19T03:22:49;7.13;;;5.37;;
5684;SDS011;2865;53.114;9.130;2022-08-19T03:25:14;6.00;;;4.60;;
5684;SDS011;2865;53.114;9.130;2022-08-19T03:27:40;9.93;;;4.90;;
5684;SDS011;2865;53.114;9.130;2022-08-19T03:30:05;5.50;;;4.97;;
5684;SDS011;2865;53.114;9.130;2022-08-19T03:32:31;6.77;;;4.40;;
5684;SDS011;2865;53.114;9.130;2022-08-19T03:34:57;5.50;;;4.57;;
5684;SDS011;2865;53.114;9.130;2022-08-19T03:37:22;5.03;;;4.50;;
5684;SDS011;2865;53.114;9.130;2022-08-19T03:39:47;8.10;;;4.73;;
5684;SDS011;2865;53.114;9.130;2022-08-19T03:42:13;4.50;;;4.10;;
5684;SDS011;2865;53.114;9.130;2022-08-19T03:44:38;8.67;;;3.93;;
5684;SDS011;2865;53.114;9.130;2022-08-19T03:47:04;5.70;;;5.20;;
5684;SDS011;2865;53.114;9.130;2022-08-19T03:49:30;7.30;;;4.10;;
5684;SDS011;2865;53.114;9.130;2022-08-19T03:51:55;4.77;;;4.37;;
5684;SDS011;2865;53.114;9.130;2022-08-19T03:54:20;4.43;;;4.03;;
5684;SDS011;2865;53.114;9.130;2022-08-19T03:56:45;5.07;;;4.30;;
5684;SDS011;2865;53.114;9.130;2022-08-19T03:59:12;5.43;;;4.93;;
5684;SDS011;2865;53.114;9.130;2022-08-19T04:01:36;11.13;;;5.83;;
5684;SDS011;2865;53.114;9.130;2022-08-19T04:04:01;6.47;;;4.80;;
5684;SDS011;2865;53.114;9.130;2022-08-19T04:06:29;7.30;;;5.70;;
5684;SDS011;2865;53.114;9.130;2022-08-19T04:08:53;9.17;;;5.30;;
5684;SDS011;2865;53.114;9.130;2022-08-19T04:11:21;6.47;;;5.33;;
5684;SDS011;2865;53.114;9.130;2022-08-19T04:13:44;7.30;;;5.63;;
5684;SDS011;2865;53.114;9.130;2022-08-19T04:16:10;6.50;;;5.03;;
5684;SDS011;2865;53.114;9.130;2022-08-19T04:18:35;6.70;;;6.00;;
5684;SDS011;2865;53.114;9.130;2022-08-19T04:21:00;7.00;;;5.17;;
5684;SDS011;2865;53.114;9.130;2022-08-19T04:23:26;5.97;;;5.07;;
5684;SDS011;2865;53.114;9.130;2022-08-19T04:25:51;7.20;;;6.30;;
5684;SDS011;2865;53.114;9.130;2022-08-19T04:28:16;10.60;;;7.63;;
5684;SDS011;2865;53.114;9.130;2022-08-19T04:30:43;6.67;;;5.80;;
5684;SDS011;2865;53.114;9.130;2022-08-19T04:33:07;7.93;;;6.13;;
5684;SDS011;2865;53.114;9.130;2022-08-19T04:35:36;6.63;;;5.93;;
5684;SDS011;2865;53.114;9.130;2022-08-19T04:38:03;8.93;;;6.40;;
5684;SDS011;2865;53.114;9.130;2022-08-19T04:40:29;8.40;;;5.70;;
5684;SDS011;2865;53.114;9.130;2022-08-19T04:43:00;7.47;;;5.80;;
5684;SDS011;2865;53.114;9.130;2022-08-19T04:45:26;9.23;;;7.07;;
5684;SDS011;2865;53.114;9.130;2022-08-19T04:47:54;10.63;;;7.30;;
5684;SDS011;2865;53.114;9.130;2022-08-19T04:50:16;7.90;;;6.87;;
5684;SDS011;2865;53.114;9.130;2022-08-19T04:52:41;8.10;;;7.30;;
5684;SDS011;2865;53.114;9.130;2022-08-19T04:55:07;7.30;;;6.60;;
5684;SDS011;2865;53.114;9.130;2022-08-19T04:57:33;8.20;;;6.93;;
5684;SDS011;2865;53.114;9.130;2022-08-19T04:59:58;8.13;;;7.10;;
5684;SDS011;2865;53.114;9.130;2022-08-19T05:02:23;12.67;;;7.50;;
5684;SDS011;2865;53.114;9.130;2022-08-19T05:04:49;11.40;;;7.43;;
5684;SDS011;2865;53.114;9.130;2022-08-19T05:07:14;9.37;;;6.60;;
5684;SDS011;2865;53.114;9.130;2022-08-19T05:09:39;8.17;;;7.10;;
5684;SDS011;2865;53.114;9.130;2022-08-19T05:12:05;10.03;;;7.63;;
5684;SDS011;2865;53.114;9.130;2022-08-19T05:14:30;8.30;;;7.37;;
5684;SDS011;2865;53.114;9.130;2022-08-19T05:16:56;7.30;;;6.43;;
5684;SDS011;2865;53.114;9.130;2022-08-19T05:19:21;7.37;;;6.63;;
5684;SDS011;2865;53.114;9.130;2022-08-19T05:21:53;7.30;;;6.53;;
5684;SDS011;2865;53.114;9.130;2022-08-19T05:24:24;6.50;;;5.90;;
5684;SDS011;2865;53.114;9.130;2022-08-19T05:26:50;6.40;;;5.73;;
5684;SDS011;2865;53.114;9.130;2022-08-19T05:29:16;9.53;;;6.77;;
5684;SDS011;2865;53.114;9.130;2022-08-19T05:31:40;6.40;;;5.80;;
5684;SDS011;2865;53.114;9.130;2022-08-19T05:34:06;6.97;;;5.90;;
5684;SDS011;2865;53.114;9.130;2022-08-19T05:36:33;6.40;;;5.10;;
5684;SDS011;2865;53.114;9.130;2022-08-19T05:38:59;8.50;;;7.30;;
5684;SDS011;2865;53.114;9.130;2022-08-19T05:41:24;10.77;;;6.43;;
5684;SDS011;2865;53.114;9.130;2022-08-19T05:43:50;7.77;;;6.57;;
5684;SDS011;2865;53.114;9.130;2022-08-19T05:46:17;9.80;;;6.00;;
5684;SDS011;2865;53.114;9.130;2022-08-19T05:48:42;8.30;;;6.17;;
5684;SDS011;2865;53.114;9.130;2022-08-19T05:51:07;6.33;;;5.53;;
5684;SDS011;2865;53.114;9.130;2022-08-19T05:53:33;6.23;;;5.63;;
5684;SDS011;2865;53.114;9.130;2022-08-19T05:56:03;6.23;;;5.33;;
5684;SDS011;2865;53.114;9.130;2022-08-19T05:58:23;5.80;;;4.83;;
5684;SDS011;2865;53.114;9.130;2022-08-19T06:00:49;10.97;;;5.07;;
5684;SDS011;2865;53.114;9.130;2022-08-19T06:03:14;5.30;;;3.80;;
5684;SDS011;2865;53.114;9.130;2022-08-19T06:05:40;6.20;;;3.87;;
5684;SDS011;2865;53.114;9.130;2022-08-19T06:08:05;6.13;;;3.83;;
5684;SDS011;2865;53.114;9.130;2022-08-19T06:10:30;4.00;;;3.70;;
5684;SDS011;2865;53.114;9.130;2022-08-19T06:12:55;4.00;;;3.60;;
5684;SDS011;2865;53.114;9.130;2022-08-19T06:15:21;5.00;;;3.33;;
5684;SDS011;2865;53.114;9.130;2022-08-19T06:17:46;4.63;;;3.50;;
5684;SDS011;2865;53.114;9.130;2022-08-19T06:20:13;4.63;;;3.93;;
5684;SDS011;2865;53.114;9.130;2022-08-19T06:22:38;4.70;;;3.50;;
5684;SDS011;2865;53.114;9.130;2022-08-19T06:25:04;3.23;;;2.93;;
5684;SDS011;2865;53.114;9.130;2022-08-19T06:27:30;3.87;;;3.53;;
5684;SDS011;2865;53.114;9.130;2022-08-19T06:29:55;3.80;;;3.50;;
5684;SDS011;2865;53.114;9.130;2022-08-19T06:32:21;4.93;;;3.83;;
5684;SDS011;2865;53.114;9.130;2022-08-19T06:34:46;4.30;;;3.90;;
5684;SDS011;2865;53.114;9.130;2022-08-19T06:37:12;5.90;;;4.30;;
5684;SDS011;2865;53.114;9.130;2022-08-19T06:39:37;4.17;;;3.63;;
5684;SDS011;2865;53.114;9.130;2022-08-19T06:42:02;4.73;;;3.97;;
5684;SDS011;2865;53.114;9.130;2022-08-19T06:44:28;4.13;;;3.80;;
5684;SDS011;2865;53.114;9.130;2022-08-19T06:46:54;4.20;;;3.80;;
5684;SDS011;2865;53.114;9.130;2022-08-19T06:49:18;4.83;;;4.43;;
5684;SDS011;2865;53.114;9.130;2022-08-19T06:51:44;5.90;;;4.30;;
5684;SDS011;2865;53.114;9.130;2022-08-19T06:54:10;3.83;;;3.43;;
5684;SDS011;2865;53.114;9.130;2022-08-19T06:56:35;5.23;;;3.90;;
5684;SDS011;2865;53.114;9.130;2022-08-19T06:59:01;5.00;;;4.60;;
5684;SDS011;2865;53.114;9.130;2022-08-19T07:01:26;5.87;;;4.80;;
5684;SDS011;2865;53.114;9.130;2022-08-19T07:03:52;5.10;;;4.47;;
5684;SDS011;2865;53.114;9.130;2022-08-19T07:06:17;5.27;;;3.77;;
5684;SDS011;2865;53.114;9.130;2022-08-19T07:08:43;5.17;;;4.57;;
5684;SDS011;2865;53.114;9.130;2022-08-19T07:11:09;5.53;;;5.00;;
5684;SDS011;2865;53.114;9.130;2022-08-19T07:13:34;5.17;;;4.67;;
5684;SDS011;2865;53.114;9.130;2022-08-19T07:16:02;5.77;;;4.60;;
5684;SDS011;2865;53.114;9.130;2022-08-19T07:18:25;3.80;;;3.50;;
5684;SDS011;2865;53.114;9.130;2022-08-19T07:20:50;5.50;;;4.83;;
5684;SDS011;2865;53.114;9.130;2022-08-19T07:23:15;4.90;;;3.70;;
5684;SDS011;2865;53.114;9.130;2022-08-19T07:25:41;4.50;;;4.10;;
5684;SDS011;2865;53.114;9.130;2022-08-19T07:28:06;6.10;;;4.80;;
5684;SDS011;2865;53.114;9.130;2022-08-19T07:30:31;5.57;;;5.07;;
5684;SDS011;2865;53.114;9.130;2022-08-19T07:32:56;4.57;;;3.47;;
5684;SDS011;2865;53.114;9.130;2022-08-19T07:35:22;4.33;;;3.93;;
5684;SDS011;2865;53.114;9.130;2022-08-19T07:37:47;4.27;;;3.90;;
5684;SDS011;2865;53.114;9.130;2022-08-19T07:40:12;4.50;;;4.10;;
5684;SDS011;2865;53.114;9.130;2022-08-19T07:42:38;4.10;;;3.53;;
5684;SDS011;2865;53.114;9.130;2022-08-19T07:45:04;4.67;;;4.00;;
5684;SDS011;2865;53.114;9.130;2022-08-19T07:47:29;3.80;;;3.40;;
5684;SDS011;2865;53.114;9.130;2022-08-19T07:49:55;4.70;;;4.20;;
5684;SDS011;2865;53.114;9.130;2022-08-19T07:52:20;5.83;;;4.73;;
5684;SDS011;2865;53.114;9.130;2022-08-19T07:54:45;4.80;;;4.30;;
5684;SDS011;2865;53.114;9.130;2022-08-19T07:57:11;3.87;;;3.57;;
5684;SDS011;2865;53.114;9.130;2022-08-19T07:59:36;4.57;;;4.20;;
5684;SDS011;2865;53.114;9.130;2022-08-19T08:02:02;3.63;;;3.27;;
5684;SDS011;2865;53.114;9.130;2022-08-19T08:04:27;7.83;;;4.20;;
5684;SDS011;2865;53.114;9.130;2022-08-19T08:06:58;3.23;;;2.93;;
5684;SDS011;2865;53.114;9.130;2022-08-19T08:09:31;7.80;;;3.00;;
5684;SDS011;2865;53.114;9.130;2022-08-19T08:11:57;5.63;;;3.60;;
5684;SDS011;2865;53.114;9.130;2022-08-19T08:14:23;4.40;;;3.20;;
5684;SDS011;2865;53.114;9.130;2022-08-19T08:16:46;5.40;;;3.47;;
5684;SDS011;2865;53.114;9.130;2022-08-19T08:19:12;7.60;;;4.80;;
5684;SDS011;2865;53.114;9.130;2022-08-19T08:21:37;4.20;;;3.80;;
5684;SDS011;2865;53.114;9.130;2022-08-19T08:24:02;3.70;;;3.40;;
5684;SDS011;2865;53.114;9.130;2022-08-19T08:26:28;6.03;;;3.63;;
5684;SDS011;2865;53.114;9.130;2022-08-19T08:28:53;5.83;;;4.17;;
5684;SDS011;2865;53.114;9.130;2022-08-19T08:31:18;3.60;;;3.30;;
5684;SDS011;2865;53.114;9.130;2022-08-19T08:33:44;3.17;;;2.87;;
5684;SDS011;2865;53.114;9.130;2022-08-19T08:36:09;3.30;;;2.60;;
5684;SDS011;2865;53.114;9.130;2022-08-19T08:38:35;3.33;;;3.00;;
5684;SDS011;2865;53.114;9.130;2022-08-19T08:41:01;3.40;;;2.90;;
5684;SDS011;2865;53.114;9.130;2022-08-19T08:43:29;3.70;;;3.37;;
5684;SDS011;2865;53.114;9.130;2022-08-19T08:45:56;6.73;;;4.40;;
5684;SDS011;2865;53.114;9.130;2022-08-19T08:48:23;4.10;;;3.67;;
5684;SDS011;2865;53.114;9.130;2022-08-19T08:50:46;3.63;;;3.17;;
5684;SDS011;2865;53.114;9.130;2022-08-19T08:53:11;3.17;;;2.83;;
5684;SDS011;2865;53.114;9.130;2022-08-19T08:55:37;3.20;;;2.90;;
5684;SDS011;2865;53.114;9.130;2022-08-19T08:58:05;3.93;;;3.20;;
5684;SDS011;2865;53.114;9.130;2022-08-19T09:00:30;4.13;;;3.10;;
5684;SDS011;2865;53.114;9.130;2022-08-19T09:02:55;3.80;;;2.80;;
5684;SDS011;2865;53.114;9.130;2022-08-19T09:05:20;4.80;;;2.90;;
5684;SDS011;2865;53.114;9.130;2022-08-19T09:07:52;3.67;;;3.27;;
5684;SDS011;2865;53.114;9.130;2022-08-19T09:10:27;5.57;;;3.73;;
5684;SDS011;2865;53.114;9.130;2022-08-19T09:13:12;3.87;;;2.90;;
5684;SDS011;2865;53.114;9.130;2022-08-19T09:15:52;4.17;;;3.80;;
5684;SDS011;2865;53.114;9.130;2022-08-19T09:18:16;2.53;;;2.33;;
5684;SDS011;2865;53.114;9.130;2022-08-19T09:20:41;3.00;;;2.80;;
5684;SDS011;2865;53.114;9.130;2022-08-19T09:23:07;4.23;;;3.30;;
5684;SDS011;2865;53.114;9.130;2022-08-19T09:25:32;3.67;;;2.87;;
5684;SDS011;2865;53.114;9.130;2022-08-19T09:27:57;4.73;;;3.70;;
5684;SDS011;2865;53.114;9.130;2022-08-19T09:30:24;3.60;;;3.30;;
5684;SDS011;2865;53.114;9.130;2022-08-19T09:32:48;5.70;;;3.40;;
5684;SDS011;2865;53.114;9.130;2022-08-19T09:35:14;5.53;;;3.50;;
5684;SDS011;2865;53.114;9.130;2022-08-19T09:37:39;4.13;;;3.07;;
5684;SDS011;2865;53.114;9.130;2022-08-19T09:40:04;4.07;;;3.00;;
5684;SDS011;2865;53.114;9.130;2022-08-19T09:42:30;3.20;;;2.73;;
5684;SDS011;2865;53.114;9.130;2022-08-19T09:44:55;2.87;;;2.67;;
5684;SDS011;2865;53.114;9.130;2022-08-19T09:47:21;4.83;;;2.93;;
5684;SDS011;2865;53.114;9.130;2022-08-19T09:49:46;4.17;;;3.77;;
5684;SDS011;2865;53.114;9.130;2022-08-19T09:52:11;3.90;;;3.50;;
5684;SDS011;2865;53.114;9.130;2022-08-19T09:54:37;3.43;;;3.13;;
5684;SDS011;2865;53.114;9.130;2022-08-19T09:57:02;4.30;;;3.20;;
5684;SDS011;2865;53.114;9.130;2022-08-19T09:59:28;3.40;;;3.10;;
5684;SDS011;2865;53.114;9.130;2022-08-19T10:01:53;3.53;;;2.83;;
5684;SDS011;2865;53.114;9.130;2022-08-19T10:04:18;2.83;;;2.60;;
5684;SDS011;2865;53.114;9.130;2022-08-19T10:06:44;3.30;;;2.70;;
5684;SDS011;2865;53.114;9.130;2022-08-19T10:09:09;3.97;;;3.00;;
5684;SDS011;2865;53.114;9.130;2022-08-19T10:11:35;3.57;;;3.27;;
5684;SDS011;2865;53.114;9.130;2022-08-19T10:14:00;3.40;;;3.10;;
5684;SDS011;2865;53.114;9.130;2022-08-19T10:16:25;2.97;;;2.70;;
5684;SDS011;2865;53.114;9.130;2022-08-19T10:18:51;3.50;;;3.20;;
5684;SDS011;2865;53.114;9.130;2022-08-19T10:21:17;4.33;;;3.23;;
5684;SDS011;2865;53.114;9.130;2022-08-19T10:23:43;7.93;;;3.77;;
5684;SDS011;2865;53.114;9.130;2022-08-19T10:26:06;3.90;;;2.90;;
5684;SDS011;2865;53.114;9.130;2022-08-19T10:28:33;4.70;;;3.10;;
5684;SDS011;2865;53.114;9.130;2022-08-19T10:31:03;3.60;;;3.30;;
5684;SDS011;2865;53.114;9.130;2022-08-19T10:33:26;3.13;;;2.93;;
5684;SDS011;2865;53.114;9.130;2022-08-19T10:38:23;4.50;;;3.20;;
5684;SDS011;2865;53.114;9.130;2022-08-19T10:40:48;7.27;;;3.70;;
5684;SDS011;2865;53.114;9.130;2022-08-19T10:43:13;3.70;;;3.10;;
5684;SDS011;2865;53.114;9.130;2022-08-19T10:45:39;4.60;;;3.80;;
5684;SDS011;2865;53.114;9.130;2022-08-19T10:48:04;3.83;;;3.50;;
5684;SDS011;2865;53.114;9.130;2022-08-19T10:50:29;6.43;;;3.97;;
5684;SDS011;2865;53.114;9.130;2022-08-19T10:53:16;3.40;;;2.70;;
5684;SDS011;2865;53.114;9.130;2022-08-19T10:55:41;4.30;;;3.10;;
5684;SDS011;2865;53.114;9.130;2022-08-19T10:58:13;4.07;;;3.33;;
5684;SDS011;2865;53.114;9.130;2022-08-19T11:00:38;3.83;;;3.43;;
5684;SDS011;2865;53.114;9.130;2022-08-19T11:03:03;3.73;;;3.10;;
5684;SDS011;2865;53.114;9.130;2022-08-19T11:05:28;6.50;;;3.43;;
5684;SDS011;2865;53.114;9.130;2022-08-19T11:07:54;4.13;;;3.77;;
5684;SDS011;2865;53.114;9.130;2022-08-19T11:10:19;4.30;;;3.60;;
5684;SDS011;2865;53.114;9.130;2022-08-19T11:12:44;3.57;;;3.17;;
5684;SDS011;2865;53.114;9.130;2022-08-19T11:15:10;3.00;;;2.80;;
5684;SDS011;2865;53.114;9.130;2022-08-19T11:17:35;3.40;;;2.90;;
5684;SDS011;2865;53.114;9.130;2022-08-19T11:20:01;3.17;;;2.50;;
5684;SDS011;2865;53.114;9.130;2022-08-19T11:22:26;3.07;;;2.20;;
5684;SDS011;2865;53.114;9.130;2022-08-19T11:24:51;2.70;;;2.50;;
5684;SDS011;2865;53.114;9.130;2022-08-19T11:27:16;2.60;;;2.40;;
5684;SDS011;2865;53.114;9.130;2022-08-19T11:29:42;3.50;;;2.73;;
5684;SDS011;2865;53.114;9.130;2022-08-19T11:32:08;3.83;;;2.77;;
5684;SDS011;2865;53.114;9.130;2022-08-19T11:34:33;2.50;;;2.30;;
5684;SDS011;2865;53.114;9.130;2022-08-19T11:36:58;4.60;;;3.07;;
5684;SDS011;2865;53.114;9.130;2022-08-19T11:39:24;2.77;;;2.40;;
5684;SDS011;2865;53.114;9.130;2022-08-19T11:41:49;2.40;;;2.20;;
5684;SDS011;2865;53.114;9.130;2022-08-19T11:44:14;2.17;;;2.07;;
5684;SDS011;2865;53.114;9.130;2022-08-19T11:46:40;2.93;;;2.33;;
5684;SDS011;2865;53.114;9.130;2022-08-19T11:49:05;2.50;;;2.10;;
5684;SDS011;2865;53.114;9.130;2022-08-19T11:51:30;3.90;;;1.90;;
5684;SDS011;2865;53.114;9.130;2022-08-19T11:53:57;1.93;;;1.83;;
5684;SDS011;2865;53.114;9.130;2022-08-19T11:56:22;3.40;;;1.90;;
5684;SDS011;2865;53.114;9.130;2022-08-19T11:58:46;2.97;;;2.27;;
5684;SDS011;2865;53.114;9.130;2022-08-19T12:01:12;3.47;;;2.13;;
5684;SDS011;2865;53.114;9.130;2022-08-19T12:03:37;2.13;;;2.03;;
5684;SDS011;2865;53.114;9.130;2022-08-19T12:06:03;3.80;;;1.63;;
5684;SDS011;2865;53.114;9.130;2022-08-19T12:08:27;2.00;;;1.90;;
5684;SDS011;2865;53.114;9.130;2022-08-19T12:10:53;2.10;;;1.90;;
5684;SDS011;2865;53.114;9.130;2022-08-19T12:13:18;3.33;;;1.93;;
5684;SDS011;2865;53.114;9.130;2022-08-19T12:15:44;2.03;;;1.83;;
5684;SDS011;2865;53.114;9.130;2022-08-19T12:18:09;3.63;;;2.60;;
5684;SDS011;2865;53.114;9.130;2022-08-19T12:20:36;3.37;;;1.80;;
5684;SDS011;2865;53.114;9.130;2022-08-19T12:23:00;1.80;;;1.70;;
5684;SDS011;2865;53.114;9.130;2022-08-19T12:25:25;1.97;;;1.80;;
5684;SDS011;2865;53.114;9.130;2022-08-19T12:27:51;1.93;;;1.70;;
5684;SDS011;2865;53.114;9.130;2022-08-19T12:30:16;1.60;;;1.40;;
5684;SDS011;2865;53.114;9.130;2022-08-19T12:32:41;1.50;;;1.40;;
5684;SDS011;2865;53.114;9.130;2022-08-19T12:35:07;2.17;;;1.67;;
5684;SDS011;2865;53.114;9.130;2022-08-19T12:37:33;5.00;;;1.80;;
5684;SDS011;2865;53.114;9.130;2022-08-19T12:39:58;2.03;;;1.50;;
5684;SDS011;2865;53.114;9.130;2022-08-19T12:42:24;1.70;;;1.60;;
5684;SDS011;2865;53.114;9.130;2022-08-19T12:44:49;2.93;;;1.60;;
5684;SDS011;2865;53.114;9.130;2022-08-19T12:47:14;1.30;;;1.20;;
5684;SDS011;2865;53.114;9.130;2022-08-19T12:49:40;1.63;;;1.40;;
5684;SDS011;2865;53.114;9.130;2022-08-19T12:52:06;1.53;;;1.43;;
5684;SDS011;2865;53.114;9.130;2022-08-19T12:54:30;2.50;;;2.00;;
5684;SDS011;2865;53.114;9.130;2022-08-19T12:56:56;4.30;;;1.70;;
5684;SDS011;2865;53.114;9.130;2022-08-19T12:59:21;1.63;;;1.53;;
5684;SDS011;2865;53.114;9.130;2022-08-19T13:01:46;1.83;;;1.30;;
5684;SDS011;2865;53.114;9.130;2022-08-19T13:04:12;2.40;;;1.30;;
5684;SDS011;2865;53.114;9.130;2022-08-19T13:06:37;2.20;;;1.37;;
5684;SDS011;2865;53.114;9.130;2022-08-19T13:09:03;2.70;;;1.40;;
5684;SDS011;2865;53.114;9.130;2022-08-19T13:11:28;1.77;;;1.50;;
5684;SDS011;2865;53.114;9.130;2022-08-19T13:13:53;1.53;;;1.43;;
5684;SDS011;2865;53.114;9.130;2022-08-19T13:16:19;1.03;;;1.03;;
5684;SDS011;2865;53.114;9.130;2022-08-19T13:18:44;2.03;;;1.53;;
5684;SDS011;2865;53.114;9.130;2022-08-19T13:21:09;2.30;;;1.53;;
5684;SDS011;2865;53.114;9.130;2022-08-19T13:23:35;2.47;;;1.43;;
5684;SDS011;2865;53.114;9.130;2022-08-19T13:26:00;1.77;;;1.20;;
5684;SDS011;2865;53.114;9.130;2022-08-19T13:28:25;3.73;;;1.20;;
5684;SDS011;2865;53.114;9.130;2022-08-19T13:30:51;1.50;;;1.13;;
5684;SDS011;2865;53.114;9.130;2022-08-19T13:33:22;1.90;;;1.20;;
5684;SDS011;2865;53.114;9.130;2022-08-19T13:35:50;1.40;;;1.30;;
5684;SDS011;2865;53.114;9.130;2022-08-19T13:38:16;1.30;;;1.20;;
5684;SDS011;2865;53.114;9.130;2022-08-19T13:40:40;1.23;;;1.13;;
5684;SDS011;2865;53.114;9.130;2022-08-19T13:43:06;1.10;;;1.00;;
5684;SDS011;2865;53.114;9.130;2022-08-19T13:45:32;1.40;;;1.20;;
5684;SDS011;2865;53.114;9.130;2022-08-19T13:47:57;1.37;;;1.27;;
5684;SDS011;2865;53.114;9.130;2022-08-19T13:50:23;1.43;;;1.20;;
5684;SDS011;2865;53.114;9.130;2022-08-19T13:52:47;1.40;;;1.03;;
5684;SDS011;2865;53.114;9.130;2022-08-19T13:55:13;1.70;;;1.23;;
5684;SDS011;2865;53.114;9.130;2022-08-19T13:57:38;1.70;;;1.13;;
5684;SDS011;2865;53.114;9.130;2022-08-19T14:00:05;1.57;;;1.10;;
5684;SDS011;2865;53.114;9.130;2022-08-19T14:02:30;0.90;;;0.90;;
5684;SDS011;2865;53.114;9.130;2022-08-19T14:04:55;1.13;;;1.03;;
5684;SDS011;2865;53.114;9.130;2022-08-19T14:07:21;4.07;;;1.40;;
5684;SDS011;2865;53.114;9.130;2022-08-19T14:09:46;1.27;;;1.17;;
5684;SDS011;2865;53.114;9.130;2022-08-19T14:12:12;1.40;;;1.30;;
5684;SDS011;2865;53.114;9.130;2022-08-19T14:14:37;1.37;;;1.10;;
5684;SDS011;2865;53.114;9.130;2022-08-19T14:17:05;1.20;;;1.10;;
5684;SDS011;2865;53.114;9.130;2022-08-19T14:19:31;1.40;;;1.30;;
5684;SDS011;2865;53.114;9.130;2022-08-19T14:21:56;1.20;;;1.10;;
5684;SDS011;2865;53.114;9.130;2022-08-19T14:24:22;4.23;;;1.30;;
5684;SDS011;2865;53.114;9.130;2022-08-19T14:26:47;0.70;;;0.70;;
5684;SDS011;2865;53.114;9.130;2022-08-19T14:29:12;0.90;;;0.90;;
5684;SDS011;2865;53.114;9.130;2022-08-19T14:31:38;1.57;;;1.10;;
5684;SDS011;2865;53.114;9.130;2022-08-19T14:34:03;1.30;;;1.00;;
5684;SDS011;2865;53.114;9.130;2022-08-19T14:36:28;2.60;;;1.30;;
5684;SDS011;2865;53.114;9.130;2022-08-19T14:38:54;1.57;;;1.00;;
5684;SDS011;2865;53.114;9.130;2022-08-19T14:41:20;4.30;;;1.07;;
5684;SDS011;2865;53.114;9.130;2022-08-19T14:43:45;3.47;;;1.10;;
5684;SDS011;2865;53.114;9.130;2022-08-19T14:46:11;1.27;;;1.03;;
5684;SDS011;2865;53.114;9.130;2022-08-19T14:48:36;1.53;;;1.00;;
5684;SDS011;2865;53.114;9.130;2022-08-19T14:51:02;1.17;;;1.17;;
5684;SDS011;2865;53.114;9.130;2022-08-19T14:53:27;1.10;;;1.00;;
5684;SDS011;2865;53.114;9.130;2022-08-19T14:55:53;2.50;;;1.10;;
5684;SDS011;2865;53.114;9.130;2022-08-19T14:58:18;1.03;;;0.80;;
5684;SDS011;2865;53.114;9.130;2022-08-19T15:00:44;2.63;;;1.00;;
5684;SDS011;2865;53.114;9.130;2022-08-19T15:03:09;1.87;;;0.90;;
5684;SDS011;2865;53.114;9.130;2022-08-19T15:05:34;1.40;;;0.90;;
5684;SDS011;2865;53.114;9.130;2022-08-19T15:08:02;1.40;;;0.90;;